sensor_id;sensor_type;location;lat;lon;timestamp;P1;durP1;ratioP1;P2;durP2;ratioP2
74789;SDS011;63318;52.406;13.416;2023-05-07T00:00:43;14.20;;;9.70;;
74789;SDS011;63318;52.406;13.416;2023-05-07T00:03:12;15.70;;;9.80;;
74789;SDS011;63318;52.406;13.416;2023-05-07T00:05:41;13.90;;;9.00;;
74789;SDS011;63318;52.406;13.416;2023-05-07T00:08:11;16.90;;;10.00;;
74789;SDS011;63318;52.406;13.416;2023-05-07T00:10:40;14.50;;;9.90;;
74789;SDS011;63318;52.406;13.416;2023-05-07T00:13:10;13.70;;;8.40;;
74789;SDS011;63318;52.406;13.416;2023-05-07T00:15:39;12.60;;;7.80;;
74789;SDS011;63318;52.406;13.416;2023-05-07T00:18:08;14.80;;;8.30;;
74789;SDS011;63318;52.406;13.416;2023-05-07T00:20:36;12.70;;;7.50;;
74789;SDS011;63318;52.406;13.416;2023-05-07T00:23:05;12.20;;;7.80;;
74789;SDS011;63318;52.406;13.416;2023-05-07T00:25:33;12.70;;;7.90;;
74789;SDS011;63318;52.406;13.416;2023-05-07T00:28:02;12.80;;;7.70;;
74789;SDS011;63318;52.406;13.416;2023-05-07T00:30:30;11.90;;;7.50;;
74789;SDS011;63318;52.406;13.416;2023-05-07T00:33:01;12.30;;;8.10;;
74789;SDS011;63318;52.406;13.416;2023-05-07T00:35:32;11.60;;;7.80;;
74789;SDS011;63318;52.406;13.416;2023-05-07T00:38:01;11.80;;;7.70;;
74789;SDS011;63318;52.406;13.416;2023-05-07T00:40:31;11.30;;;7.70;;
74789;SDS011;63318;52.406;13.416;2023-05-07T00:43:00;10.50;;;7.00;;
74789;SDS011;63318;52.406;13.416;2023-05-07T00:45:29;11.90;;;7.70;;
74789;SDS011;63318;52.406;13.416;2023-05-07T00:48:00;10.90;;;7.30;;
74789;SDS011;63318;52.406;13.416;2023-05-07T00:50:30;10.90;;;7.30;;
74789;SDS011;63318;52.406;13.416;2023-05-07T00:53:00;9.80;;;6.80;;
74789;SDS011;63318;52.406;13.416;2023-05-07T00:55:30;9.10;;;6.90;;
74789;SDS011;63318;52.406;13.416;2023-05-07T00:58:02;9.90;;;6.70;;
74789;SDS011;63318;52.406;13.416;2023-05-07T01:00:32;10.70;;;7.00;;
74789;SDS011;63318;52.406;13.416;2023-05-07T01:03:01;13.10;;;6.60;;
74789;SDS011;63318;52.406;13.416;2023-05-07T01:05:31;10.20;;;6.60;;
74789;SDS011;63318;52.406;13.416;2023-05-07T01:08:03;9.80;;;6.50;;
74789;SDS011;63318;52.406;13.416;2023-05-07T01:10:33;9.90;;;6.20;;
74789;SDS011;63318;52.406;13.416;2023-05-07T01:13:02;10.20;;;6.80;;
74789;SDS011;63318;52.406;13.416;2023-05-07T01:15:31;9.80;;;6.80;;
74789;SDS011;63318;52.406;13.416;2023-05-07T01:18:00;8.80;;;6.60;;
74789;SDS011;63318;52.406;13.416;2023-05-07T01:20:30;10.80;;;7.10;;
74789;SDS011;63318;52.406;13.416;2023-05-07T01:23:00;11.90;;;6.40;;
74789;SDS011;63318;52.406;13.416;2023-05-07T01:25:29;10.70;;;6.90;;
74789;SDS011;63318;52.406;13.416;2023-05-07T01:27:59;11.10;;;7.80;;
74789;SDS011;63318;52.406;13.416;2023-05-07T01:30:30;13.40;;;7.50;;
74789;SDS011;63318;52.406;13.416;2023-05-07T01:32:59;10.00;;;7.00;;
74789;SDS011;63318;52.406;13.416;2023-05-07T01:35:32;9.90;;;6.90;;
74789;SDS011;63318;52.406;13.416;2023-05-07T01:38:04;12.90;;;7.10;;
74789;SDS011;63318;52.406;13.416;2023-05-07T01:40:34;11.70;;;6.90;;
74789;SDS011;63318;52.406;13.416;2023-05-07T01:43:03;11.90;;;7.80;;
74789;SDS011;63318;52.406;13.416;2023-05-07T01:45:32;9.70;;;6.70;;
74789;SDS011;63318;52.406;13.416;2023-05-07T01:48:03;9.60;;;7.20;;
74789;SDS011;63318;52.406;13.416;2023-05-07T01:50:33;10.80;;;7.70;;
74789;SDS011;63318;52.406;13.416;2023-05-07T01:53:04;11.40;;;7.90;;
74789;SDS011;63318;52.406;13.416;2023-05-07T01:55:32;9.60;;;6.60;;
74789;SDS011;63318;52.406;13.416;2023-05-07T01:58:01;11.30;;;6.80;;
74789;SDS011;63318;52.406;13.416;2023-05-07T02:00:31;12.50;;;8.20;;
74789;SDS011;63318;52.406;13.416;2023-05-07T02:03:00;11.60;;;6.80;;
74789;SDS011;63318;52.406;13.416;2023-05-07T02:05:29;11.20;;;7.10;;
74789;SDS011;63318;52.406;13.416;2023-05-07T02:07:57;11.00;;;6.70;;
74789;SDS011;63318;52.406;13.416;2023-05-07T02:10:26;9.70;;;7.20;;
74789;SDS011;63318;52.406;13.416;2023-05-07T02:12:56;11.40;;;8.10;;
74789;SDS011;63318;52.406;13.416;2023-05-07T02:15:25;13.00;;;7.10;;
74789;SDS011;63318;52.406;13.416;2023-05-07T02:17:59;10.10;;;7.10;;
74789;SDS011;63318;52.406;13.416;2023-05-07T02:20:29;10.90;;;7.20;;
74789;SDS011;63318;52.406;13.416;2023-05-07T02:22:58;10.10;;;7.60;;
74789;SDS011;63318;52.406;13.416;2023-05-07T02:25:27;8.70;;;6.30;;
74789;SDS011;63318;52.406;13.416;2023-05-07T02:27:56;12.80;;;7.20;;
74789;SDS011;63318;52.406;13.416;2023-05-07T02:30:24;11.00;;;6.80;;
74789;SDS011;63318;52.406;13.416;2023-05-07T02:32:54;10.60;;;7.20;;
74789;SDS011;63318;52.406;13.416;2023-05-07T02:35:22;11.80;;;7.50;;
74789;SDS011;63318;52.406;13.416;2023-05-07T02:37:53;11.70;;;7.40;;
74789;SDS011;63318;52.406;13.416;2023-05-07T02:40:21;10.50;;;7.20;;
74789;SDS011;63318;52.406;13.416;2023-05-07T02:42:51;12.40;;;7.20;;
74789;SDS011;63318;52.406;13.416;2023-05-07T02:45:20;11.00;;;6.20;;
74789;SDS011;63318;52.406;13.416;2023-05-07T02:47:50;12.10;;;6.70;;
74789;SDS011;63318;52.406;13.416;2023-05-07T02:50:21;11.10;;;6.60;;
74789;SDS011;63318;52.406;13.416;2023-05-07T02:52:49;12.80;;;6.90;;
74789;SDS011;63318;52.406;13.416;2023-05-07T02:55:17;11.30;;;7.40;;
74789;SDS011;63318;52.406;13.416;2023-05-07T02:57:46;10.10;;;6.10;;
74789;SDS011;63318;52.406;13.416;2023-05-07T03:00:16;11.20;;;7.30;;
74789;SDS011;63318;52.406;13.416;2023-05-07T03:02:46;11.20;;;7.60;;
74789;SDS011;63318;52.406;13.416;2023-05-07T03:05:15;11.50;;;6.90;;
74789;SDS011;63318;52.406;13.416;2023-05-07T03:07:44;10.80;;;6.20;;
74789;SDS011;63318;52.406;13.416;2023-05-07T03:10:13;13.40;;;6.80;;
74789;SDS011;63318;52.406;13.416;2023-05-07T03:12:41;12.40;;;8.00;;
74789;SDS011;63318;52.406;13.416;2023-05-07T03:15:11;10.90;;;6.90;;
74789;SDS011;63318;52.406;13.416;2023-05-07T03:17:40;9.90;;;6.80;;
74789;SDS011;63318;52.406;13.416;2023-05-07T03:20:10;12.10;;;7.50;;
74789;SDS011;63318;52.406;13.416;2023-05-07T03:22:40;10.70;;;7.20;;
74789;SDS011;63318;52.406;13.416;2023-05-07T03:25:09;11.60;;;7.40;;
74789;SDS011;63318;52.406;13.416;2023-05-07T03:27:40;11.50;;;7.40;;
74789;SDS011;63318;52.406;13.416;2023-05-07T03:30:10;11.20;;;6.90;;
74789;SDS011;63318;52.406;13.416;2023-05-07T03:32:40;11.80;;;7.60;;
74789;SDS011;63318;52.406;13.416;2023-05-07T03:35:09;12.00;;;6.70;;
74789;SDS011;63318;52.406;13.416;2023-05-07T03:37:39;10.50;;;6.70;;
74789;SDS011;63318;52.406;13.416;2023-05-07T03:40:09;10.20;;;6.80;;
74789;SDS011;63318;52.406;13.416;2023-05-07T03:42:38;12.90;;;7.50;;
74789;SDS011;63318;52.406;13.416;2023-05-07T03:45:08;9.90;;;6.10;;
74789;SDS011;63318;52.406;13.416;2023-05-07T03:47:38;11.50;;;6.90;;
74789;SDS011;63318;52.406;13.416;2023-05-07T03:50:07;9.30;;;6.40;;
74789;SDS011;63318;52.406;13.416;2023-05-07T03:52:37;8.30;;;5.40;;
74789;SDS011;63318;52.406;13.416;2023-05-07T03:55:07;9.90;;;6.10;;
74789;SDS011;63318;52.406;13.416;2023-05-07T03:57:36;10.90;;;6.70;;
74789;SDS011;63318;52.406;13.416;2023-05-07T04:00:06;12.40;;;6.70;;
74789;SDS011;63318;52.406;13.416;2023-05-07T04:05:04;8.60;;;6.10;;
74789;SDS011;63318;52.406;13.416;2023-05-07T04:07:35;10.90;;;6.80;;
74789;SDS011;63318;52.406;13.416;2023-05-07T04:10:04;10.60;;;6.30;;
74789;SDS011;63318;52.406;13.416;2023-05-07T04:12:34;10.40;;;6.70;;
74789;SDS011;63318;52.406;13.416;2023-05-07T04:15:03;11.60;;;7.20;;
74789;SDS011;63318;52.406;13.416;2023-05-07T04:17:33;10.30;;;6.80;;
74789;SDS011;63318;52.406;13.416;2023-05-07T04:20:02;12.10;;;6.40;;
74789;SDS011;63318;52.406;13.416;2023-05-07T04:22:33;11.50;;;6.60;;
74789;SDS011;63318;52.406;13.416;2023-05-07T04:25:02;10.70;;;7.00;;
74789;SDS011;63318;52.406;13.416;2023-05-07T04:27:31;10.70;;;6.60;;
74789;SDS011;63318;52.406;13.416;2023-05-07T04:30:00;9.00;;;6.30;;
74789;SDS011;63318;52.406;13.416;2023-05-07T04:32:29;9.70;;;6.40;;
74789;SDS011;63318;52.406;13.416;2023-05-07T04:34:59;10.00;;;7.00;;
74789;SDS011;63318;52.406;13.416;2023-05-07T04:37:31;10.60;;;6.50;;
74789;SDS011;63318;52.406;13.416;2023-05-07T04:39:59;11.20;;;5.60;;
74789;SDS011;63318;52.406;13.416;2023-05-07T04:42:29;8.20;;;6.10;;
74789;SDS011;63318;52.406;13.416;2023-05-07T04:44:58;13.60;;;6.90;;
74789;SDS011;63318;52.406;13.416;2023-05-07T04:47:29;9.30;;;5.90;;
74789;SDS011;63318;52.406;13.416;2023-05-07T04:49:58;10.30;;;6.50;;
74789;SDS011;63318;52.406;13.416;2023-05-07T04:52:27;10.30;;;6.60;;
74789;SDS011;63318;52.406;13.416;2023-05-07T04:55:00;9.20;;;6.60;;
74789;SDS011;63318;52.406;13.416;2023-05-07T04:57:31;10.10;;;6.40;;
74789;SDS011;63318;52.406;13.416;2023-05-07T04:59:59;9.00;;;5.40;;
74789;SDS011;63318;52.406;13.416;2023-05-07T05:02:31;9.30;;;6.00;;
74789;SDS011;63318;52.406;13.416;2023-05-07T05:05:00;8.00;;;5.10;;
74789;SDS011;63318;52.406;13.416;2023-05-07T05:07:30;8.30;;;5.70;;
74789;SDS011;63318;52.406;13.416;2023-05-07T05:09:59;12.00;;;5.90;;
74789;SDS011;63318;52.406;13.416;2023-05-07T05:12:28;9.10;;;6.20;;
74789;SDS011;63318;52.406;13.416;2023-05-07T05:14:57;9.60;;;6.00;;
74789;SDS011;63318;52.406;13.416;2023-05-07T05:17:25;9.50;;;6.40;;
74789;SDS011;63318;52.406;13.416;2023-05-07T05:19:54;9.70;;;6.30;;
74789;SDS011;63318;52.406;13.416;2023-05-07T05:22:24;10.10;;;5.80;;
74789;SDS011;63318;52.406;13.416;2023-05-07T05:24:53;10.40;;;5.80;;
74789;SDS011;63318;52.406;13.416;2023-05-07T05:27:22;9.70;;;5.40;;
74789;SDS011;63318;52.406;13.416;2023-05-07T05:29:51;8.60;;;5.60;;
74789;SDS011;63318;52.406;13.416;2023-05-07T05:32:21;8.90;;;5.70;;
74789;SDS011;63318;52.406;13.416;2023-05-07T05:34:50;8.40;;;4.80;;
74789;SDS011;63318;52.406;13.416;2023-05-07T05:37:20;10.20;;;5.30;;
74789;SDS011;63318;52.406;13.416;2023-05-07T05:39:49;8.30;;;5.90;;
74789;SDS011;63318;52.406;13.416;2023-05-07T05:42:19;9.00;;;5.40;;
74789;SDS011;63318;52.406;13.416;2023-05-07T05:44:48;7.70;;;5.10;;
74789;SDS011;63318;52.406;13.416;2023-05-07T05:47:16;8.80;;;5.30;;
74789;SDS011;63318;52.406;13.416;2023-05-07T05:49:46;7.60;;;4.50;;
74789;SDS011;63318;52.406;13.416;2023-05-07T05:52:14;9.40;;;4.70;;
74789;SDS011;63318;52.406;13.416;2023-05-07T05:54:43;6.60;;;4.70;;
74789;SDS011;63318;52.406;13.416;2023-05-07T05:57:16;5.70;;;3.90;;
74789;SDS011;63318;52.406;13.416;2023-05-07T05:59:45;6.80;;;4.40;;
74789;SDS011;63318;52.406;13.416;2023-05-07T06:02:16;8.40;;;4.20;;
74789;SDS011;63318;52.406;13.416;2023-05-07T06:04:45;6.30;;;4.10;;
74789;SDS011;63318;52.406;13.416;2023-05-07T06:07:17;7.10;;;3.90;;
74789;SDS011;63318;52.406;13.416;2023-05-07T06:09:52;6.10;;;4.00;;
74789;SDS011;63318;52.406;13.416;2023-05-07T06:12:25;6.60;;;4.30;;
74789;SDS011;63318;52.406;13.416;2023-05-07T06:14:54;6.40;;;4.00;;
74789;SDS011;63318;52.406;13.416;2023-05-07T06:17:23;6.90;;;3.70;;
74789;SDS011;63318;52.406;13.416;2023-05-07T06:19:52;7.60;;;4.30;;
74789;SDS011;63318;52.406;13.416;2023-05-07T06:22:21;6.90;;;4.00;;
74789;SDS011;63318;52.406;13.416;2023-05-07T06:24:50;7.10;;;4.50;;
74789;SDS011;63318;52.406;13.416;2023-05-07T06:27:19;9.60;;;4.50;;
74789;SDS011;63318;52.406;13.416;2023-05-07T06:29:49;6.90;;;4.00;;
74789;SDS011;63318;52.406;13.416;2023-05-07T06:32:18;8.50;;;4.70;;
74789;SDS011;63318;52.406;13.416;2023-05-07T06:34:47;7.70;;;5.10;;
74789;SDS011;63318;52.406;13.416;2023-05-07T06:37:15;8.50;;;5.20;;
74789;SDS011;63318;52.406;13.416;2023-05-07T06:39:44;8.00;;;4.90;;
74789;SDS011;63318;52.406;13.416;2023-05-07T06:42:12;7.00;;;4.20;;
74789;SDS011;63318;52.406;13.416;2023-05-07T06:44:41;6.50;;;4.40;;
74789;SDS011;63318;52.406;13.416;2023-05-07T06:47:10;9.60;;;4.90;;
74789;SDS011;63318;52.406;13.416;2023-05-07T06:49:38;6.90;;;4.60;;
74789;SDS011;63318;52.406;13.416;2023-05-07T06:52:07;6.90;;;4.70;;
74789;SDS011;63318;52.406;13.416;2023-05-07T06:54:36;6.80;;;4.10;;
74789;SDS011;63318;52.406;13.416;2023-05-07T06:57:05;7.30;;;4.50;;
74789;SDS011;63318;52.406;13.416;2023-05-07T06:59:33;8.80;;;4.50;;
74789;SDS011;63318;52.406;13.416;2023-05-07T07:02:03;7.40;;;4.40;;
74789;SDS011;63318;52.406;13.416;2023-05-07T07:04:34;8.30;;;4.30;;
74789;SDS011;63318;52.406;13.416;2023-05-07T07:07:03;7.20;;;4.40;;
74789;SDS011;63318;52.406;13.416;2023-05-07T07:09:32;7.60;;;4.50;;
74789;SDS011;63318;52.406;13.416;2023-05-07T07:12:00;8.40;;;4.50;;
74789;SDS011;63318;52.406;13.416;2023-05-07T07:14:30;7.50;;;4.40;;
74789;SDS011;63318;52.406;13.416;2023-05-07T07:16:58;7.30;;;4.10;;
74789;SDS011;63318;52.406;13.416;2023-05-07T07:19:26;5.30;;;3.80;;
74789;SDS011;63318;52.406;13.416;2023-05-07T07:21:56;6.60;;;3.90;;
74789;SDS011;63318;52.406;13.416;2023-05-07T07:24:25;6.80;;;4.40;;
74789;SDS011;63318;52.406;13.416;2023-05-07T07:26:54;7.20;;;4.40;;
74789;SDS011;63318;52.406;13.416;2023-05-07T07:29:23;6.60;;;4.10;;
74789;SDS011;63318;52.406;13.416;2023-05-07T07:31:51;8.60;;;3.70;;
74789;SDS011;63318;52.406;13.416;2023-05-07T07:34:23;6.80;;;3.90;;
74789;SDS011;63318;52.406;13.416;2023-05-07T07:37:00;8.00;;;4.10;;
74789;SDS011;63318;52.406;13.416;2023-05-07T07:39:36;8.60;;;4.10;;
74789;SDS011;63318;52.406;13.416;2023-05-07T07:42:05;6.10;;;3.60;;
74789;SDS011;63318;52.406;13.416;2023-05-07T07:44:33;6.50;;;3.50;;
74789;SDS011;63318;52.406;13.416;2023-05-07T07:47:02;6.10;;;3.40;;
74789;SDS011;63318;52.406;13.416;2023-05-07T07:49:30;5.70;;;3.20;;
74789;SDS011;63318;52.406;13.416;2023-05-07T07:51:59;6.40;;;3.70;;
74789;SDS011;63318;52.406;13.416;2023-05-07T07:54:27;6.80;;;3.40;;
74789;SDS011;63318;52.406;13.416;2023-05-07T07:56:56;5.60;;;3.00;;
74789;SDS011;63318;52.406;13.416;2023-05-07T07:59:25;5.50;;;3.00;;
74789;SDS011;63318;52.406;13.416;2023-05-07T08:01:54;5.60;;;2.40;;
74789;SDS011;63318;52.406;13.416;2023-05-07T08:04:23;4.90;;;2.90;;
74789;SDS011;63318;52.406;13.416;2023-05-07T08:06:52;7.60;;;2.80;;
74789;SDS011;63318;52.406;13.416;2023-05-07T08:09:21;6.30;;;2.50;;
74789;SDS011;63318;52.406;13.416;2023-05-07T08:11:51;6.00;;;3.00;;
74789;SDS011;63318;52.406;13.416;2023-05-07T08:14:19;4.70;;;2.70;;
74789;SDS011;63318;52.406;13.416;2023-05-07T08:16:48;4.70;;;2.40;;
74789;SDS011;63318;52.406;13.416;2023-05-07T08:19:17;5.30;;;2.30;;
74789;SDS011;63318;52.406;13.416;2023-05-07T08:21:46;6.30;;;2.60;;
74789;SDS011;63318;52.406;13.416;2023-05-07T08:24:14;4.60;;;2.80;;
74789;SDS011;63318;52.406;13.416;2023-05-07T08:26:43;4.60;;;2.30;;
74789;SDS011;63318;52.406;13.416;2023-05-07T08:29:13;3.90;;;2.30;;
74789;SDS011;63318;52.406;13.416;2023-05-07T08:31:41;5.30;;;2.70;;
74789;SDS011;63318;52.406;13.416;2023-05-07T08:34:10;4.80;;;2.60;;
74789;SDS011;63318;52.406;13.416;2023-05-07T08:36:38;5.20;;;2.60;;
74789;SDS011;63318;52.406;13.416;2023-05-07T08:39:07;4.50;;;2.30;;
74789;SDS011;63318;52.406;13.416;2023-05-07T08:41:35;4.90;;;2.40;;
74789;SDS011;63318;52.406;13.416;2023-05-07T08:44:05;5.40;;;2.50;;
74789;SDS011;63318;52.406;13.416;2023-05-07T08:46:39;4.40;;;2.50;;
74789;SDS011;63318;52.406;13.416;2023-05-07T08:49:08;3.80;;;2.20;;
74789;SDS011;63318;52.406;13.416;2023-05-07T08:51:38;5.20;;;2.10;;
74789;SDS011;63318;52.406;13.416;2023-05-07T08:54:09;5.40;;;2.10;;
74789;SDS011;63318;52.406;13.416;2023-05-07T08:56:42;3.50;;;1.80;;
74789;SDS011;63318;52.406;13.416;2023-05-07T08:59:11;4.20;;;2.10;;
74789;SDS011;63318;52.406;13.416;2023-05-07T09:01:40;4.40;;;2.00;;
74789;SDS011;63318;52.406;13.416;2023-05-07T09:04:10;3.80;;;1.80;;
74789;SDS011;63318;52.406;13.416;2023-05-07T09:06:38;4.00;;;1.80;;
74789;SDS011;63318;52.406;13.416;2023-05-07T09:09:07;5.00;;;1.90;;
74789;SDS011;63318;52.406;13.416;2023-05-07T09:11:36;3.70;;;1.80;;
74789;SDS011;63318;52.406;13.416;2023-05-07T09:14:04;4.40;;;1.90;;
74789;SDS011;63318;52.406;13.416;2023-05-07T09:16:33;3.90;;;1.70;;
74789;SDS011;63318;52.406;13.416;2023-05-07T09:19:01;3.40;;;1.50;;
74789;SDS011;63318;52.406;13.416;2023-05-07T09:21:30;7.00;;;1.50;;
74789;SDS011;63318;52.406;13.416;2023-05-07T09:23:59;3.80;;;1.80;;
74789;SDS011;63318;52.406;13.416;2023-05-07T09:26:28;4.40;;;1.80;;
74789;SDS011;63318;52.406;13.416;2023-05-07T09:28:56;3.50;;;1.40;;
74789;SDS011;63318;52.406;13.416;2023-05-07T09:31:25;4.40;;;1.60;;
74789;SDS011;63318;52.406;13.416;2023-05-07T09:33:54;3.80;;;1.50;;
74789;SDS011;63318;52.406;13.416;2023-05-07T09:36:24;4.30;;;1.50;;
74789;SDS011;63318;52.406;13.416;2023-05-07T09:38:53;4.70;;;1.40;;
74789;SDS011;63318;52.406;13.416;2023-05-07T09:41:25;3.40;;;1.60;;
74789;SDS011;63318;52.406;13.416;2023-05-07T09:43:57;2.90;;;1.50;;
74789;SDS011;63318;52.406;13.416;2023-05-07T09:46:27;4.70;;;1.40;;
74789;SDS011;63318;52.406;13.416;2023-05-07T09:48:57;3.60;;;1.30;;
74789;SDS011;63318;52.406;13.416;2023-05-07T09:51:30;4.60;;;1.50;;
74789;SDS011;63318;52.406;13.416;2023-05-07T09:54:01;3.10;;;1.30;;
74789;SDS011;63318;52.406;13.416;2023-05-07T09:56:31;3.80;;;1.30;;
74789;SDS011;63318;52.406;13.416;2023-05-07T09:59:00;3.60;;;1.60;;
74789;SDS011;63318;52.406;13.416;2023-05-07T10:01:29;4.10;;;1.30;;
74789;SDS011;63318;52.406;13.416;2023-05-07T10:04:03;3.60;;;1.60;;
74789;SDS011;63318;52.406;13.416;2023-05-07T10:06:33;3.70;;;1.60;;
74789;SDS011;63318;52.406;13.416;2023-05-07T10:09:02;3.70;;;1.30;;
74789;SDS011;63318;52.406;13.416;2023-05-07T10:11:32;3.90;;;1.60;;
74789;SDS011;63318;52.406;13.416;2023-05-07T10:14:02;3.70;;;1.30;;
74789;SDS011;63318;52.406;13.416;2023-05-07T10:16:32;4.10;;;1.50;;
74789;SDS011;63318;52.406;13.416;2023-05-07T10:19:02;4.40;;;1.70;;
74789;SDS011;63318;52.406;13.416;2023-05-07T10:21:32;2.90;;;1.30;;
74789;SDS011;63318;52.406;13.416;2023-05-07T10:24:05;3.60;;;1.40;;
74789;SDS011;63318;52.406;13.416;2023-05-07T10:29:05;4.00;;;1.20;;
74789;SDS011;63318;52.406;13.416;2023-05-07T10:31:42;2.80;;;1.20;;
74789;SDS011;63318;52.406;13.416;2023-05-07T10:34:21;3.40;;;1.40;;
74789;SDS011;63318;52.406;13.416;2023-05-07T10:36:54;3.00;;;1.20;;
74789;SDS011;63318;52.406;13.416;2023-05-07T10:39:23;3.20;;;1.40;;
74789;SDS011;63318;52.406;13.416;2023-05-07T10:41:52;2.90;;;1.10;;
74789;SDS011;63318;52.406;13.416;2023-05-07T10:44:27;3.70;;;1.20;;
74789;SDS011;63318;52.406;13.416;2023-05-07T10:47:06;3.20;;;1.00;;
74789;SDS011;63318;52.406;13.416;2023-05-07T10:49:36;3.80;;;1.30;;
74789;SDS011;63318;52.406;13.416;2023-05-07T10:52:25;3.20;;;1.30;;
74789;SDS011;63318;52.406;13.416;2023-05-07T10:57:49;3.10;;;1.30;;
74789;SDS011;63318;52.406;13.416;2023-05-07T11:03:10;3.40;;;1.20;;
74789;SDS011;63318;52.406;13.416;2023-05-07T11:05:40;2.90;;;1.20;;
74789;SDS011;63318;52.406;13.416;2023-05-07T11:08:10;2.80;;;1.20;;
74789;SDS011;63318;52.406;13.416;2023-05-07T11:10:52;3.10;;;1.20;;
74789;SDS011;63318;52.406;13.416;2023-05-07T11:16:18;3.90;;;1.40;;
74789;SDS011;63318;52.406;13.416;2023-05-07T11:18:49;3.00;;;1.30;;
74789;SDS011;63318;52.406;13.416;2023-05-07T11:21:32;3.80;;;1.50;;
74789;SDS011;63318;52.406;13.416;2023-05-07T11:24:05;3.60;;;1.30;;
74789;SDS011;63318;52.406;13.416;2023-05-07T11:26:43;3.90;;;1.30;;
74789;SDS011;63318;52.406;13.416;2023-05-07T11:29:15;3.40;;;1.40;;
74789;SDS011;63318;52.406;13.416;2023-05-07T11:31:45;4.30;;;1.80;;
74789;SDS011;63318;52.406;13.416;2023-05-07T11:36:47;3.30;;;1.30;;
74789;SDS011;63318;52.406;13.416;2023-05-07T11:39:26;6.00;;;2.10;;
74789;SDS011;63318;52.406;13.416;2023-05-07T11:41:56;4.40;;;1.40;;
74789;SDS011;63318;52.406;13.416;2023-05-07T11:44:25;4.10;;;1.60;;
74789;SDS011;63318;52.406;13.416;2023-05-07T11:47:07;3.50;;;1.40;;
74789;SDS011;63318;52.406;13.416;2023-05-07T11:49:35;4.00;;;1.30;;
74789;SDS011;63318;52.406;13.416;2023-05-07T11:52:04;4.30;;;1.40;;
74789;SDS011;63318;52.406;13.416;2023-05-07T11:54:36;3.60;;;1.30;;
74789;SDS011;63318;52.406;13.416;2023-05-07T11:57:04;3.70;;;1.20;;
74789;SDS011;63318;52.406;13.416;2023-05-07T11:59:39;2.90;;;1.10;;
74789;SDS011;63318;52.406;13.416;2023-05-07T12:02:07;3.30;;;1.50;;
74789;SDS011;63318;52.406;13.416;2023-05-07T12:04:37;2.90;;;1.20;;
74789;SDS011;63318;52.406;13.416;2023-05-07T12:07:06;4.00;;;1.30;;
74789;SDS011;63318;52.406;13.416;2023-05-07T12:09:40;3.00;;;1.20;;
74789;SDS011;63318;52.406;13.416;2023-05-07T12:12:09;3.20;;;1.60;;
74789;SDS011;63318;52.406;13.416;2023-05-07T12:14:39;3.00;;;1.80;;
74789;SDS011;63318;52.406;13.416;2023-05-07T12:17:08;3.60;;;1.20;;
74789;SDS011;63318;52.406;13.416;2023-05-07T12:19:38;2.70;;;1.10;;
74789;SDS011;63318;52.406;13.416;2023-05-07T12:22:09;4.10;;;1.40;;
74789;SDS011;63318;52.406;13.416;2023-05-07T12:24:45;3.90;;;1.50;;
74789;SDS011;63318;52.406;13.416;2023-05-07T12:27:17;3.60;;;1.50;;
74789;SDS011;63318;52.406;13.416;2023-05-07T12:29:46;3.10;;;1.40;;
74789;SDS011;63318;52.406;13.416;2023-05-07T12:32:15;3.90;;;1.30;;
74789;SDS011;63318;52.406;13.416;2023-05-07T12:34:45;3.20;;;1.20;;
74789;SDS011;63318;52.406;13.416;2023-05-07T12:37:16;3.90;;;1.40;;
74789;SDS011;63318;52.406;13.416;2023-05-07T12:39:50;3.10;;;1.20;;
74789;SDS011;63318;52.406;13.416;2023-05-07T12:42:34;3.50;;;1.20;;
74789;SDS011;63318;52.406;13.416;2023-05-07T12:45:09;3.80;;;1.20;;
74789;SDS011;63318;52.406;13.416;2023-05-07T12:47:43;3.80;;;1.30;;
74789;SDS011;63318;52.406;13.416;2023-05-07T12:50:12;3.30;;;1.70;;
74789;SDS011;63318;52.406;13.416;2023-05-07T12:52:41;3.50;;;1.30;;
74789;SDS011;63318;52.406;13.416;2023-05-07T12:55:13;4.20;;;1.20;;
74789;SDS011;63318;52.406;13.416;2023-05-07T12:57:43;4.40;;;1.40;;
74789;SDS011;63318;52.406;13.416;2023-05-07T13:00:14;3.10;;;1.10;;
74789;SDS011;63318;52.406;13.416;2023-05-07T13:02:58;2.80;;;1.20;;
74789;SDS011;63318;52.406;13.416;2023-05-07T13:05:29;3.70;;;1.20;;
74789;SDS011;63318;52.406;13.416;2023-05-07T13:07:58;3.10;;;1.30;;
74789;SDS011;63318;52.406;13.416;2023-05-07T13:10:27;2.60;;;1.20;;
74789;SDS011;63318;52.406;13.416;2023-05-07T13:12:55;3.00;;;1.00;;
74789;SDS011;63318;52.406;13.416;2023-05-07T13:15:24;2.20;;;0.90;;
74789;SDS011;63318;52.406;13.416;2023-05-07T13:17:52;2.80;;;1.30;;
74789;SDS011;63318;52.406;13.416;2023-05-07T13:20:20;2.60;;;1.00;;
74789;SDS011;63318;52.406;13.416;2023-05-07T13:22:50;3.80;;;1.20;;
74789;SDS011;63318;52.406;13.416;2023-05-07T13:25:18;3.10;;;1.20;;
74789;SDS011;63318;52.406;13.416;2023-05-07T13:27:47;3.30;;;1.20;;
74789;SDS011;63318;52.406;13.416;2023-05-07T13:30:16;4.60;;;1.10;;
74789;SDS011;63318;52.406;13.416;2023-05-07T13:32:44;2.40;;;1.00;;
74789;SDS011;63318;52.406;13.416;2023-05-07T13:35:13;3.40;;;1.10;;
74789;SDS011;63318;52.406;13.416;2023-05-07T13:37:42;3.00;;;1.30;;
74789;SDS011;63318;52.406;13.416;2023-05-07T13:40:12;3.00;;;1.20;;
74789;SDS011;63318;52.406;13.416;2023-05-07T13:42:42;2.80;;;1.10;;
74789;SDS011;63318;52.406;13.416;2023-05-07T13:45:11;3.50;;;1.30;;
74789;SDS011;63318;52.406;13.416;2023-05-07T13:47:39;3.20;;;1.00;;
74789;SDS011;63318;52.406;13.416;2023-05-07T13:50:09;3.20;;;1.00;;
74789;SDS011;63318;52.406;13.416;2023-05-07T13:52:39;4.60;;;1.50;;
74789;SDS011;63318;52.406;13.416;2023-05-07T13:55:09;3.50;;;1.30;;
74789;SDS011;63318;52.406;13.416;2023-05-07T13:57:38;2.70;;;1.20;;
74789;SDS011;63318;52.406;13.416;2023-05-07T14:00:07;2.80;;;1.10;;
74789;SDS011;63318;52.406;13.416;2023-05-07T14:02:38;6.10;;;1.00;;
74789;SDS011;63318;52.406;13.416;2023-05-07T14:05:08;2.30;;;1.00;;
74789;SDS011;63318;52.406;13.416;2023-05-07T14:07:36;2.70;;;1.20;;
74789;SDS011;63318;52.406;13.416;2023-05-07T14:10:06;2.70;;;1.20;;
74789;SDS011;63318;52.406;13.416;2023-05-07T14:12:35;4.50;;;1.30;;
74789;SDS011;63318;52.406;13.416;2023-05-07T14:15:04;2.80;;;1.20;;
74789;SDS011;63318;52.406;13.416;2023-05-07T14:17:34;2.60;;;1.10;;
74789;SDS011;63318;52.406;13.416;2023-05-07T14:20:03;3.00;;;1.20;;
74789;SDS011;63318;52.406;13.416;2023-05-07T14:22:34;3.20;;;1.20;;
74789;SDS011;63318;52.406;13.416;2023-05-07T14:25:03;3.20;;;1.20;;
74789;SDS011;63318;52.406;13.416;2023-05-07T14:27:34;3.00;;;1.30;;
74789;SDS011;63318;52.406;13.416;2023-05-07T14:30:02;3.70;;;1.20;;
74789;SDS011;63318;52.406;13.416;2023-05-07T14:32:31;2.60;;;1.20;;
74789;SDS011;63318;52.406;13.416;2023-05-07T14:35:01;2.80;;;1.20;;
74789;SDS011;63318;52.406;13.416;2023-05-07T14:37:30;2.80;;;1.30;;
74789;SDS011;63318;52.406;13.416;2023-05-07T14:39:59;3.30;;;1.30;;
74789;SDS011;63318;52.406;13.416;2023-05-07T14:42:28;3.30;;;1.10;;
74789;SDS011;63318;52.406;13.416;2023-05-07T14:44:58;3.00;;;1.20;;
74789;SDS011;63318;52.406;13.416;2023-05-07T14:47:27;3.00;;;1.30;;
74789;SDS011;63318;52.406;13.416;2023-05-07T14:49:55;4.40;;;1.60;;
74789;SDS011;63318;52.406;13.416;2023-05-07T14:52:25;3.30;;;1.30;;
74789;SDS011;63318;52.406;13.416;2023-05-07T14:54:54;3.40;;;1.40;;
74789;SDS011;63318;52.406;13.416;2023-05-07T14:57:24;2.40;;;1.10;;
74789;SDS011;63318;52.406;13.416;2023-05-07T14:59:55;2.40;;;1.10;;
74789;SDS011;63318;52.406;13.416;2023-05-07T15:02:25;3.60;;;1.40;;